Archival Weather

Republic

Farmingdale, New York (KFRG)

Report from: Monday, February 19, 2024 4:53 PM EST
Current time: Saturday, June 22, 2024 5:02 AM EDT

Current weather – Weather history – Daily summaries
Weather forecast

Temperature3.3°C (37.9°F)
Wind chill-0.3°C (31.5°F)
Dew point-12.8°C (9.0°F)
Winds 8 kts (4.1 m/s, 9.2 mph) North (350°)
Visibility10 mi. (16.1 km)
Clouds Sky clear
Altimeter30.20 in.Hg (1023 mB)
Relative humidity30 %
Density altitude-1,694 ft. (-516 m)
Sea-level pressure102.3 kPa (1023 mB, 30.20 in.Hg)
Remarks Automated weather observing station without precipitation discriminator
Flight conditions Visual Meteorological Conditions
Raw dataKFRG 192153Z 35008KT 10SM CLR 03/M13 A3020 RMK AO1 SLP226 T00331128
An error has occurred. This application may no longer respond until reloaded. Reload 🗙